createdAt,value
2019-01-24T00:01:59.411Z,43.90
2019-01-24T00:04:40.296Z,46.30
2019-01-24T00:07:20.807Z,40.37
2019-01-24T00:10:01.709Z,47.73
2019-01-24T00:12:42.608Z,42.60
2019-01-24T00:15:23.731Z,43.23
2019-01-24T00:18:05.145Z,46.10
2019-01-24T00:20:45.937Z,39.60
2019-01-24T00:26:43.749Z,47.67
2019-01-24T00:29:25.087Z,45.83
2019-01-24T00:32:05.771Z,41.63
2019-01-24T00:34:46.867Z,41.60
2019-01-24T00:37:27.577Z,46.93
2019-01-24T00:40:07.798Z,49.83
2019-01-24T00:42:48.337Z,45.90
2019-01-24T00:45:28.981Z,43.40
2019-01-24T00:48:09.597Z,46.00
2019-01-24T00:50:51.078Z,44.03
2019-01-24T00:53:32.402Z,47.30
2019-01-24T00:56:11.841Z,45.93
2019-01-24T00:58:53.061Z,52.40
2019-01-24T01:01:33.953Z,46.63
2019-01-24T01:04:14.583Z,50.93
2019-01-24T01:06:55.353Z,42.67
2019-01-24T01:09:36.190Z,45.70
2019-01-24T01:12:17.015Z,56.50
2019-01-24T01:14:57.831Z,42.17
2019-01-24T01:17:38.739Z,50.67
2019-01-24T01:20:19.680Z,46.60
2019-01-24T01:23:00.438Z,47.03
2019-01-24T01:25:41.078Z,43.30
2019-01-24T01:28:21.849Z,42.23
2019-01-24T01:31:03.006Z,44.10
2019-01-24T01:33:43.777Z,41.10
2019-01-24T01:36:24.256Z,39.47
2019-01-24T01:39:05.140Z,50.57
2019-01-24T01:41:50.595Z,47.00
2019-01-24T01:44:31.420Z,44.97
2019-01-24T01:47:12.640Z,46.73
2019-01-24T01:49:53.632Z,45.13
2019-01-24T01:52:34.598Z,41.13
2019-01-24T01:55:15.600Z,41.43
2019-01-24T01:57:56.328Z,46.20
2019-01-24T02:00:37.406Z,47.17
2019-01-24T02:03:18.206Z,46.40
2019-01-24T02:05:59.055Z,45.73
2019-01-24T02:11:53.301Z,47.93
2019-01-24T02:14:34.201Z,45.53
2019-01-24T02:17:14.727Z,51.73
2019-01-24T02:19:55.589Z,47.03
2019-01-24T02:22:37.602Z,49.70
2019-01-24T02:25:18.088Z,39.83
2019-01-24T02:27:58.937Z,46.70
2019-01-24T02:30:39.365Z,44.97
2019-01-24T02:33:20.435Z,48.50
2019-01-24T02:38:43.371Z,49.00
2019-01-24T02:41:19.641Z,46.97
2019-01-24T02:43:58.515Z,53.93
2019-01-24T02:46:28.041Z,47.20
2019-01-24T02:48:57.541Z,47.00
2019-01-24T02:51:27.126Z,48.67
2019-01-24T02:53:56.563Z,50.83
2019-01-24T02:56:44.940Z,46.83
2019-01-24T02:59:25.553Z,46.00
2019-01-24T03:02:06.627Z,44.13
2019-01-24T03:04:47.293Z,52.63
2019-01-24T03:10:33.334Z,47.93
2019-01-24T03:13:14.712Z,48.50
2019-01-24T03:15:56.012Z,44.67
2019-01-24T03:18:37.133Z,50.03
2019-01-24T03:21:17.756Z,50.70
2019-01-24T03:23:58.420Z,50.07
2019-01-24T03:26:38.974Z,45.07
2019-01-24T03:29:20.280Z,45.53
2019-01-24T03:32:01.572Z,52.80
2019-01-24T03:34:42.355Z,52.53
2019-01-24T03:37:23.472Z,52.43
2019-01-24T03:40:04.793Z,50.83
2019-01-24T03:42:45.319Z,52.20
2019-01-24T03:45:25.836Z,51.90
2019-01-24T03:48:06.284Z,50.73
2019-01-24T03:50:47.079Z,48.83
2019-01-24T03:53:27.986Z,46.30
2019-01-24T03:56:09.216Z,48.30
2019-01-24T03:58:49.974Z,48.77
2019-01-24T04:01:31.060Z,48.30
2019-01-24T04:04:12.325Z,44.30
2019-01-24T04:06:53.233Z,76.60
2019-01-24T04:09:33.734Z,49.83
2019-01-24T04:15:13.517Z,45.77
2019-01-24T04:17:54.238Z,50.13
2019-01-24T04:23:43.271Z,49.67
2019-01-24T04:26:23.877Z,51.97
2019-01-24T04:29:05.139Z,43.17
2019-01-24T04:31:47.398Z,52.93
2019-01-24T04:34:28.551Z,45.83
2019-01-24T04:39:51.405Z,51.23
2019-01-24T04:42:32.188Z,47.90
2019-01-24T04:45:13.193Z,51.97
2019-01-24T04:47:53.818Z,48.00
2019-01-24T04:50:34.901Z,43.07
2019-01-24T04:53:16.226Z,30.80
2019-01-24T04:55:56.954Z,44.80
2019-01-24T04:58:38.229Z,41.83
2019-01-24T05:01:19.465Z,40.47
2019-01-24T05:03:59.837Z,34.00
2019-01-24T05:06:39.195Z,36.97
2019-01-24T05:09:27.429Z,42.07
2019-01-24T05:12:08.550Z,37.10
2019-01-24T05:14:49.318Z,39.80
2019-01-24T05:17:30.357Z,38.33
2019-01-24T05:20:09.946Z,27.83
2019-01-24T05:22:51.104Z,34.53
2019-01-24T05:25:31.901Z,39.97
2019-01-24T05:28:12.675Z,46.50
2019-01-24T05:30:53.526Z,31.63
2019-01-24T05:33:34.727Z,40.37
2019-01-24T05:36:15.952Z,42.60
2019-01-24T05:38:56.838Z,37.97
2019-01-24T05:41:37.841Z,37.50
2019-01-24T05:44:18.400Z,37.50
2019-01-24T05:47:00.851Z,37.90
2019-01-24T05:49:42.107Z,35.70
2019-01-24T05:52:22.617Z,34.87
2019-01-24T05:55:03.150Z,42.73
2019-01-24T05:57:43.780Z,37.87
2019-01-24T06:00:31.332Z,43.57
2019-01-24T06:03:11.954Z,39.27
2019-01-24T06:05:53.254Z,40.63
2019-01-24T06:08:34.137Z,38.60
2019-01-24T06:11:14.706Z,42.30
2019-01-24T06:13:55.575Z,43.83
2019-01-24T06:16:36.272Z,41.87
2019-01-24T06:19:17.344Z,45.50
2019-01-24T06:21:58.843Z,44.40
2019-01-24T06:24:40.192Z,45.40
2019-01-24T06:27:21.624Z,42.30
2019-01-24T06:30:02.249Z,44.07
2019-01-24T06:32:43.472Z,42.27
2019-01-24T06:35:24.447Z,43.07
2019-01-24T06:38:05.117Z,52.53
2019-01-24T06:40:45.785Z,45.10
2019-01-24T06:43:26.322Z,56.10
2019-01-24T06:49:06.043Z,46.37
2019-01-24T06:51:46.917Z,50.73
2019-01-24T06:54:28.362Z,50.90
2019-01-24T06:57:09.525Z,46.70
2019-01-24T06:59:50.697Z,44.77
2019-01-24T07:02:32.308Z,43.80
2019-01-24T07:05:13.363Z,51.87
2019-01-24T07:07:53.819Z,50.97
2019-01-24T07:10:34.515Z,41.30
2019-01-24T07:13:14.983Z,48.20
2019-01-24T07:15:55.777Z,45.53
2019-01-24T07:21:06.947Z,47.33
2019-01-24T07:23:36.381Z,43.77
2019-01-24T07:26:47.310Z,49.00
2019-01-24T07:29:35.557Z,55.63
2019-01-24T07:32:16.345Z,45.33
2019-01-24T07:34:57.603Z,45.37
2019-01-24T07:37:38.342Z,45.57
2019-01-24T07:40:19.525Z,39.03
2019-01-24T07:43:00.625Z,54.10
2019-01-24T07:45:40.725Z,46.87
2019-01-24T07:48:21.833Z,50.33
2019-01-24T07:51:03.101Z,47.30
2019-01-24T07:53:44.443Z,49.57
2019-01-24T07:56:25.229Z,48.73
2019-01-24T07:59:06.673Z,48.47
2019-01-24T08:01:47.558Z,42.50
2019-01-24T08:04:28.790Z,52.53
2019-01-24T08:07:10.213Z,44.93
2019-01-24T08:09:51.067Z,48.97
2019-01-24T08:12:31.635Z,44.00
2019-01-24T08:15:12.234Z,46.57
2019-01-24T08:17:53.074Z,38.50
2019-01-24T08:20:33.566Z,47.57
2019-01-24T08:23:14.760Z,48.83
2019-01-24T08:25:55.456Z,50.23
2019-01-24T08:28:36.290Z,43.03
2019-01-24T08:31:17.097Z,43.87
2019-01-24T08:33:58.350Z,53.70
2019-01-24T08:36:39.634Z,42.10
2019-01-24T08:39:20.890Z,47.43
2019-01-24T08:42:02.231Z,46.17
2019-01-24T08:44:43.360Z,47.43
2019-01-24T08:47:24.775Z,55.30
2019-01-24T08:50:05.293Z,48.17
2019-01-24T08:52:45.738Z,51.10
2019-01-24T08:55:26.395Z,52.90
2019-01-24T08:58:07.036Z,44.80
2019-01-24T09:00:47.870Z,50.17
2019-01-24T09:03:28.662Z,45.33
2019-01-24T09:06:09.930Z,41.70
2019-01-24T09:08:50.437Z,50.73
2019-01-24T09:11:51.011Z,42.93
2019-01-24T09:14:32.418Z,43.67
2019-01-24T09:17:13.456Z,46.40
2019-01-24T09:22:43.439Z,56.53
2019-01-24T09:25:24.623Z,52.47
2019-01-24T09:28:05.918Z,45.13
2019-01-24T09:30:47.140Z,45.87
2019-01-24T09:33:27.961Z,50.10
2019-01-24T09:36:09.222Z,48.33
2019-01-24T09:38:50.797Z,47.73
2019-01-24T09:41:30.371Z,52.67
2019-01-24T09:44:11.386Z,49.13
2019-01-24T09:46:50.765Z,49.93
2019-01-24T09:49:31.663Z,50.60
2019-01-24T09:52:13.061Z,47.60
2019-01-24T09:54:53.969Z,48.63
2019-01-24T09:57:34.892Z,50.10
2019-01-24T10:00:16.277Z,44.37
2019-01-24T10:02:57.249Z,59.30
2019-01-24T10:05:38.652Z,45.60
2019-01-24T10:08:20.033Z,56.30
2019-01-24T10:11:01.385Z,50.20
2019-01-24T10:13:42.470Z,51.83
2019-01-24T10:16:23.716Z,48.40
2019-01-24T10:19:03.121Z,49.10
2019-01-24T10:21:42.495Z,49.33
2019-01-24T10:24:30.820Z,49.83
2019-01-24T10:27:12.162Z,47.50
2019-01-24T10:29:53.406Z,42.63
2019-01-24T10:32:32.843Z,55.60
2019-01-24T10:35:21.091Z,54.73
2019-01-24T10:38:02.320Z,51.00
2019-01-24T10:40:43.062Z,53.80
2019-01-24T10:46:32.900Z,58.00
2019-01-24T10:49:13.690Z,56.03
2019-01-24T10:51:53.178Z,53.57
2019-01-24T10:54:42.177Z,61.07
2019-01-24T10:57:30.480Z,51.60
2019-01-24T11:00:11.659Z,48.20
2019-01-24T11:02:53.088Z,56.97
2019-01-24T11:05:34.044Z,55.03
2019-01-24T11:08:15.071Z,52.67
2019-01-24T11:10:56.460Z,56.50
2019-01-24T11:13:37.278Z,49.77
2019-01-24T11:16:18.345Z,53.93
2019-01-24T11:18:59.188Z,54.40
2019-01-24T11:21:40.253Z,54.93
2019-01-24T11:24:21.788Z,59.47
2019-01-24T11:27:02.446Z,56.03
2019-01-24T11:29:43.827Z,52.20
2019-01-24T11:32:25.186Z,55.00
2019-01-24T11:35:05.978Z,57.43
2019-01-24T11:37:47.277Z,55.87
2019-01-24T11:40:28.449Z,63.37
2019-01-24T11:43:09.863Z,57.20
2019-01-24T11:45:50.453Z,74.60
2019-01-24T11:48:30.972Z,71.63
2019-01-24T11:51:12.245Z,82.67
2019-01-24T11:53:53.617Z,52.70
2019-01-24T11:56:34.325Z,55.20
2019-01-24T11:59:15.663Z,58.37
2019-01-24T12:01:56.175Z,47.60
2019-01-24T12:04:37.549Z,50.53
2019-01-24T12:10:04.434Z,53.77
2019-01-24T12:12:33.817Z,55.80
2019-01-24T12:15:03.297Z,56.03
2019-01-24T12:17:32.858Z,51.83
2019-01-24T12:20:02.300Z,52.43
2019-01-24T12:22:50.578Z,57.77
2019-01-24T12:25:38.885Z,50.37
2019-01-24T12:28:20.223Z,53.07
2019-01-24T12:31:01.520Z,60.50
2019-01-24T12:33:42.530Z,53.73
2019-01-24T12:36:23.671Z,51.53
2019-01-24T12:39:04.815Z,58.10
2019-01-24T12:41:45.486Z,53.27
2019-01-24T12:44:26.457Z,53.07
2019-01-24T12:47:07.263Z,49.73
2019-01-24T12:49:46.671Z,49.47
2019-01-24T12:52:34.958Z,60.73
2019-01-24T12:55:16.170Z,52.40
2019-01-24T12:57:57.862Z,56.90
2019-01-24T13:00:39.239Z,48.17
2019-01-24T13:03:19.924Z,55.40
2019-01-24T13:06:00.790Z,53.30
2019-01-24T13:08:42.048Z,51.87
2019-01-24T13:11:23.027Z,66.07
2019-01-24T13:14:04.136Z,58.70
2019-01-24T13:16:45.209Z,59.43
2019-01-24T13:19:25.826Z,55.50
2019-01-24T13:22:06.044Z,65.33
2019-01-24T13:24:54.391Z,57.67
2019-01-24T13:27:35.790Z,55.70
2019-01-24T13:30:17.178Z,53.73
2019-01-24T13:35:56.718Z,57.83
2019-01-24T13:38:37.980Z,52.07
2019-01-24T13:41:18.894Z,50.93
2019-01-24T13:43:59.523Z,57.27
2019-01-24T13:46:40.862Z,50.53
2019-01-24T13:49:22.092Z,59.60
2019-01-24T13:55:11.952Z,65.23
2019-01-24T13:57:53.250Z,58.30
2019-01-24T14:00:34.049Z,62.70
2019-01-24T14:03:15.300Z,54.73
2019-01-24T14:05:54.887Z,52.70
2019-01-24T14:08:43.290Z,57.07
2019-01-24T14:11:24.458Z,59.60
2019-01-24T14:14:06.012Z,59.00
2019-01-24T14:16:47.311Z,59.23
2019-01-24T14:22:33.337Z,61.20
2019-01-24T14:25:14.619Z,61.87
2019-01-24T14:27:55.795Z,66.17
2019-01-24T14:33:56.489Z,81.33
2019-01-24T14:39:34.925Z,54.67
2019-01-24T14:42:23.286Z,57.83
2019-01-24T14:45:13.013Z,60.23
2019-01-24T14:47:54.231Z,52.40
2019-01-24T14:50:35.011Z,59.97
2019-01-24T14:59:39.899Z,59.00
2019-01-24T15:02:20.458Z,61.30
2019-01-24T15:05:02.869Z,59.23
2019-01-24T15:07:47.360Z,54.43
2019-01-24T15:10:26.850Z,59.27
2019-01-24T15:13:07.568Z,61.53
2019-01-24T15:15:48.254Z,54.40
2019-01-24T15:18:29.980Z,58.77
2019-01-24T15:21:11.254Z,61.70
2019-01-24T15:23:52.128Z,65.13
2019-01-24T15:26:32.772Z,63.17
2019-01-24T15:29:15.783Z,56.67
2019-01-24T15:37:56.742Z,60.90
2019-01-24T15:40:36.317Z,61.27
2019-01-24T15:43:17.108Z,61.57
2019-01-24T15:45:59.296Z,70.30
2019-01-24T15:48:42.795Z,65.17
2019-01-24T15:51:23.124Z,57.67
2019-01-24T15:54:04.489Z,61.23
2019-01-24T15:56:46.130Z,60.90
2019-01-24T15:59:26.898Z,57.20
2019-01-24T16:02:07.404Z,56.90
2019-01-24T16:04:48.184Z,67.60
2019-01-24T16:07:29.934Z,59.67
2019-01-24T16:12:53.231Z,63.60
2019-01-24T16:15:33.732Z,60.43
2019-01-24T16:18:16.582Z,65.40
2019-01-24T16:20:57.195Z,59.97
2019-01-24T16:23:37.885Z,63.47
2019-01-24T16:29:20.002Z,63.27
2019-01-24T16:32:08.244Z,57.53
2019-01-24T16:34:49.321Z,59.77
2019-01-24T16:37:29.999Z,65.43
2019-01-24T16:40:10.611Z,59.13
2019-01-24T16:45:34.163Z,54.20
2019-01-24T16:48:16.233Z,53.23
2019-01-24T16:50:57.697Z,63.07
2019-01-24T16:53:38.259Z,58.27
2019-01-24T16:56:18.833Z,60.23
2019-01-24T16:59:02.515Z,50.23
2019-01-24T17:07:53.699Z,59.80
2019-01-24T17:10:35.119Z,64.83
2019-01-24T17:13:17.799Z,62.83
2019-01-24T17:15:57.212Z,62.67
2019-01-24T17:18:26.638Z,69.10
2019-01-24T17:20:56.875Z,65.03
2019-01-24T17:23:35.954Z,56.47
2019-01-24T17:26:06.102Z,56.40
2019-01-24T17:32:23.466Z,66.77
2019-01-24T17:35:04.292Z,58.50
2019-01-24T17:37:45.585Z,63.70
2019-01-24T17:40:26.131Z,67.10
2019-01-24T17:43:08.360Z,60.47
2019-01-24T17:45:49.491Z,66.17
2019-01-24T17:48:30.246Z,61.17
2019-01-24T17:51:11.711Z,62.60
2019-01-24T17:53:52.673Z,57.33
2019-01-24T17:56:35.066Z,62.13
2019-01-24T17:59:19.300Z,60.13
2019-01-24T18:02:00.319Z,61.47
2019-01-24T18:04:41.476Z,56.23
2019-01-24T18:07:22.724Z,59.00
2019-01-24T18:10:02.504Z,64.33
2019-01-24T18:12:51.105Z,82.27
2019-01-24T18:15:31.702Z,68.80
2019-01-24T18:18:12.336Z,64.20
2019-01-24T18:20:53.550Z,57.50
2019-01-24T18:23:34.376Z,56.07
2019-01-24T18:26:16.019Z,64.43
2019-01-24T18:28:58.201Z,61.60
2019-01-24T18:31:57.796Z,63.17
2019-01-24T18:34:44.936Z,61.10
2019-01-24T18:37:25.646Z,49.53
2019-01-24T18:46:26.881Z,50.73
2019-01-24T18:51:50.273Z,61.50
2019-01-24T18:54:30.847Z,52.00
2019-01-24T18:57:11.701Z,60.20
2019-01-24T18:59:52.427Z,67.30
2019-01-24T19:02:35.101Z,58.30
2019-01-24T19:05:20.431Z,46.40
2019-01-24T19:08:02.175Z,52.60
2019-01-24T19:10:42.651Z,60.63
2019-01-24T19:13:23.541Z,51.83
2019-01-24T19:16:05.034Z,54.23
2019-01-24T19:18:46.268Z,50.17
2019-01-24T19:21:27.101Z,58.83
2019-01-24T19:24:08.509Z,52.03
2019-01-24T19:26:49.980Z,60.63
2019-01-24T19:32:36.473Z,53.70
2019-01-24T19:35:17.465Z,55.47
2019-01-24T19:37:58.120Z,59.47
2019-01-24T19:40:50.628Z,50.70
2019-01-24T19:43:31.869Z,59.40
2019-01-24T19:46:13.252Z,59.40
2019-01-24T19:48:53.721Z,56.37
2019-01-24T19:51:34.355Z,50.87
2019-01-24T19:54:14.829Z,58.97
2019-01-24T19:56:55.909Z,55.27
2019-01-24T19:59:36.396Z,55.73
2019-01-24T20:02:20.754Z,62.43
2019-01-24T20:05:01.910Z,57.07
2019-01-24T20:07:43.455Z,55.47
2019-01-24T20:10:24.737Z,51.30
2019-01-24T20:16:08.356Z,51.83
2019-01-24T20:18:56.714Z,57.37
2019-01-24T20:21:45.222Z,49.90
2019-01-24T20:24:25.972Z,62.43
2019-01-24T20:27:06.528Z,53.13
2019-01-24T20:29:47.316Z,43.90
2019-01-24T20:32:27.933Z,54.77
2019-01-24T20:35:09.455Z,50.73
2019-01-24T20:37:50.962Z,60.10
2019-01-24T20:40:31.615Z,59.90
2019-01-24T20:43:12.743Z,64.60
2019-01-24T20:45:54.091Z,52.50
2019-01-24T20:48:35.811Z,49.60
2019-01-24T20:51:16.885Z,57.00
2019-01-24T20:53:58.299Z,55.67
2019-01-24T20:56:39.651Z,55.63
2019-01-24T20:59:21.085Z,54.67
2019-01-24T21:02:01.813Z,54.33
2019-01-24T21:04:43.181Z,64.53
2019-01-24T21:07:24.056Z,54.23
2019-01-24T21:10:05.581Z,52.73
2019-01-24T21:12:47.222Z,70.13
2019-01-24T21:15:28.638Z,54.83
2019-01-24T21:18:10.221Z,63.90
2019-01-24T21:20:52.319Z,53.43
2019-01-24T21:23:33.017Z,57.57
2019-01-24T21:26:14.272Z,60.10
2019-01-24T21:28:43.608Z,56.83
2019-01-24T21:31:32.004Z,62.13
2019-01-24T21:34:20.437Z,67.50
2019-01-24T21:37:01.154Z,58.50
2019-01-24T21:39:41.877Z,65.93
2019-01-24T21:42:23.187Z,55.73
2019-01-24T21:48:12.742Z,63.03
2019-01-24T21:54:13.298Z,64.40
2019-01-24T21:56:54.440Z,57.23
2019-01-24T21:59:36.330Z,58.80
2019-01-24T22:02:17.222Z,55.97
2019-01-24T22:04:58.704Z,52.10
2019-01-24T22:07:40.098Z,55.77
2019-01-24T22:10:19.715Z,64.00
2019-01-24T22:13:08.322Z,53.07
2019-01-24T22:15:37.670Z,52.93
2019-01-24T22:18:07.510Z,58.63
2019-01-24T22:20:56.009Z,52.37
2019-01-24T22:23:44.358Z,59.90
2019-01-24T22:26:25.345Z,59.70
2019-01-24T22:29:06.105Z,56.00
2019-01-24T22:31:47.013Z,57.63
2019-01-24T22:34:28.379Z,56.20
2019-01-24T22:37:09.182Z,62.77
2019-01-24T22:39:49.875Z,59.20
2019-01-24T22:42:31.187Z,59.37
2019-01-24T22:45:12.055Z,59.73
2019-01-24T22:47:53.557Z,53.27
2019-01-24T22:50:34.833Z,53.27
2019-01-24T22:53:16.174Z,58.70
2019-01-24T22:55:56.845Z,55.70
2019-01-24T22:58:38.115Z,61.00
2019-01-24T23:01:18.857Z,57.20
2019-01-24T23:03:59.539Z,57.60
2019-01-24T23:06:40.891Z,62.60
2019-01-24T23:09:21.548Z,52.80
2019-01-24T23:12:01.031Z,59.47
2019-01-24T23:14:41.667Z,68.33
2019-01-24T23:17:23.116Z,55.33
2019-01-24T23:20:04.696Z,55.00
2019-01-24T23:25:27.529Z,54.80
2019-01-24T23:28:08.858Z,59.57
2019-01-24T23:30:49.544Z,58.03
2019-01-24T23:33:31.054Z,56.30
2019-01-24T23:36:11.642Z,61.03
2019-01-24T23:38:52.297Z,61.47
2019-01-24T23:41:32.892Z,58.73
2019-01-24T23:44:13.666Z,57.67
2019-01-24T23:46:54.230Z,55.37
2019-01-24T23:49:35.288Z,64.80
2019-01-24T23:52:16.492Z,60.57
2019-01-24T23:54:57.020Z,54.37
2019-01-24T23:57:38.524Z,60.10
